RYR50AM EGSS-LEVC
Flight info
| Callsign | RYR50AM |
|---|---|
| Flight time | 2h 15m |
| Altitude | 37000 |
| Route | NUGBO M183 SILVA Q41 COWLY DCT GWC UN859 SOPIL DCT BALAN DCT LMG DCT PIMQO DCT AGN/N0389F270 DCT ANETO DCT POSSY DCT ROCME DCT SEROX DCT CASPE DCT MLA DCT CRETA DCT RIMES DCT SAURA |
| Aircraft | B38M/M-SDE1FGHILORVWXY/HB1 |
Departure
| Time | 2026-05-04 09:29 |
|---|---|
| Airport | London Stansted Airport (EGSS) |
Arrival
| Time | 2026-05-04 11:44 |
|---|---|
| Airport | Valencia Airport (LEVC) |
| Time | Latitude | Longitude | Altitude | Speed | Heading |
|---|---|---|---|---|---|
| 2026-05-04 09:01 | 51.89342 | 0.26034 | 351 ft | 0 kts | 223° |
| 2026-05-04 09:17 | 51.89364 | 0.26148 | 361 ft | 0 kts | 313° |
| 2026-05-04 09:21 | 51.89364 | 0.26147 | 361 ft | 1 kts | 313° |
| 2026-05-04 09:21 | 51.89374 | 0.26131 | 356 ft | 3 kts | 313° |
| 2026-05-04 09:21 | 51.89394 | 0.26095 | 355 ft | 5 kts | 313° |
| 2026-05-04 09:22 | 51.89424 | 0.26043 | 351 ft | 7 kts | 313° |
| 2026-05-04 09:22 | 51.89465 | 0.25973 | 351 ft | 9 kts | 313° |
| 2026-05-04 09:22 | 51.89514 | 0.25889 | 355 ft | 11 kts | 313° |
| 2026-05-04 09:22 | 51.89584 | 0.25809 | 351 ft | 13 kts | 323° |
| 2026-05-04 09:23 | 51.89595 | 0.25679 | 355 ft | 14 kts | 230° |
| 2026-05-04 09:23 | 51.89520 | 0.25566 | 358 ft | 16 kts | 222° |
| 2026-05-04 09:23 | 51.89436 | 0.25439 | 359 ft | 17 kts | 223° |
| 2026-05-04 09:23 | 51.89342 | 0.25297 | 351 ft | 19 kts | 223° |
| 2026-05-04 09:25 | 51.88496 | 0.23958 | 357 ft | 29 kts | 223° |
| 2026-05-04 09:25 | 51.88346 | 0.23733 | 355 ft | 28 kts | 223° |
| 2026-05-04 09:26 | 51.88214 | 0.23536 | 351 ft | 26 kts | 223° |
| 2026-05-04 09:26 | 51.88080 | 0.23335 | 354 ft | 27 kts | 223° |
| 2026-05-04 09:26 | 51.87939 | 0.23123 | 355 ft | 28 kts | 223° |
| 2026-05-04 09:26 | 51.87789 | 0.22899 | 355 ft | 30 kts | 223° |
| 2026-05-04 09:27 | 51.87646 | 0.22684 | 353 ft | 25 kts | 224° |
| 2026-05-04 09:27 | 51.87535 | 0.22516 | 354 ft | 17 kts | 224° |
| 2026-05-04 09:27 | 51.87525 | 0.22423 | 351 ft | 8 kts | 295° |
| 2026-05-04 09:27 | 51.87573 | 0.22334 | 349 ft | 13 kts | 314° |
| 2026-05-04 09:28 | 51.87664 | 0.22257 | 340 ft | 16 kts | 2° |
| 2026-05-04 09:28 | 51.87753 | 0.22361 | 348 ft | 19 kts | 43° |
| 2026-05-04 09:28 | 51.88036 | 0.22784 | 347 ft | 91 kts | 43° |
| 2026-05-04 09:28 | 51.88656 | 0.23713 | 339 ft | 149 kts | 43° |
| 2026-05-04 09:29 | 51.89468 | 0.24943 | 741 ft | 163 kts | 42° |
| 2026-05-04 09:29 | 51.90311 | 0.26249 | 1474 ft | 169 kts | 42° |
| 2026-05-04 09:29 | 51.91132 | 0.27505 | 2031 ft | 183 kts | 42° |
| 2026-05-04 09:29 | 51.92071 | 0.28822 | 2412 ft | 197 kts | 31° |
| 2026-05-04 09:30 | 51.93360 | 0.29519 | 2878 ft | 202 kts | 9° |
| 2026-05-04 09:30 | 51.94782 | 0.29508 | 3318 ft | 210 kts | 344° |
| 2026-05-04 09:30 | 51.96037 | 0.28280 | 3760 ft | 214 kts | 312° |
| 2026-05-04 09:30 | 51.96749 | 0.26066 | 4161 ft | 236 kts | 283° |
| 2026-05-04 09:31 | 51.97062 | 0.23327 | 4637 ft | 256 kts | 281° |
| 2026-05-04 09:31 | 51.97399 | 0.20421 | 5180 ft | 269 kts | 280° |
| 2026-05-04 09:31 | 51.97738 | 0.17422 | 6097 ft | 269 kts | 280° |
| 2026-05-04 09:31 | 51.98071 | 0.14442 | 6875 ft | 273 kts | 280° |
| 2026-05-04 09:32 | 51.98408 | 0.11376 | 7677 ft | 275 kts | 279° |
| 2026-05-04 09:32 | 51.98740 | 0.08340 | 8479 ft | 277 kts | 279° |
| 2026-05-04 09:34 | 51.96226 | -0.15092 | 12840 ft | 329 kts | 257° |
| 2026-05-04 09:34 | 51.95753 | -0.18717 | 13611 ft | 333 kts | 257° |
| 2026-05-04 09:34 | 51.95274 | -0.22384 | 14314 ft | 337 kts | 257° |
| 2026-05-04 09:34 | 51.94782 | -0.26135 | 15022 ft | 340 kts | 257° |
| 2026-05-04 09:35 | 51.94283 | -0.29932 | 15706 ft | 346 kts | 257° |
| 2026-05-04 09:35 | 51.93781 | -0.33739 | 15950 ft | 347 kts | 257° |
| 2026-05-04 09:35 | 51.93272 | -0.37598 | 16021 ft | 347 kts | 257° |
| 2026-05-04 09:35 | 51.92769 | -0.41393 | 16022 ft | 347 kts | 257° |
| 2026-05-04 09:37 | 51.89132 | -0.68549 | 19453 ft | 361 kts | 256° |
| 2026-05-04 09:37 | 51.88594 | -0.72518 | 20084 ft | 362 kts | 256° |
| 2026-05-04 09:38 | 51.88050 | -0.76528 | 20713 ft | 364 kts | 256° |
| 2026-05-04 09:38 | 51.87507 | -0.80517 | 21328 ft | 365 kts | 256° |
| 2026-05-04 09:38 | 51.86961 | -0.84522 | 21944 ft | 367 kts | 256° |
| 2026-05-04 09:38 | 51.86404 | -0.88597 | 22545 ft | 369 kts | 256° |
| 2026-05-04 09:39 | 51.85820 | -0.92614 | 23129 ft | 370 kts | 251° |
| 2026-05-04 09:39 | 51.84659 | -0.96332 | 23696 ft | 370 kts | 233° |
| 2026-05-04 09:39 | 51.82835 | -0.99253 | 23953 ft | 376 kts | 216° |
| 2026-05-04 09:39 | 51.80529 | -1.01160 | 24020 ft | 377 kts | 200° |
| 2026-05-04 09:40 | 51.77976 | -1.02089 | 24026 ft | 379 kts | 193° |
| 2026-05-04 09:40 | 51.75368 | -1.02859 | 24022 ft | 379 kts | 192° |
| 2026-05-04 09:40 | 51.72793 | -1.03575 | 24031 ft | 380 kts | 192° |
| 2026-05-04 09:40 | 51.70165 | -1.04278 | 24457 ft | 380 kts | 191° |
| 2026-05-04 09:41 | 51.67570 | -1.04956 | 24923 ft | 382 kts | 191° |
| 2026-05-04 09:42 | 51.48983 | -1.01303 | 28059 ft | 397 kts | 169° |
| 2026-05-04 09:43 | 51.46269 | -1.00195 | 28478 ft | 399 kts | 168° |
| 2026-05-04 09:43 | 51.43594 | -0.99102 | 28882 ft | 400 kts | 169° |
| 2026-05-04 09:43 | 51.40903 | -0.98004 | 29286 ft | 401 kts | 169° |
| 2026-05-04 09:43 | 51.38182 | -0.96893 | 29699 ft | 403 kts | 169° |
| 2026-05-04 09:44 | 51.35447 | -0.95779 | 30063 ft | 404 kts | 169° |
| 2026-05-04 09:44 | 51.32713 | -0.94666 | 30378 ft | 406 kts | 169° |
| 2026-05-04 09:44 | 51.29978 | -0.93554 | 30620 ft | 409 kts | 168° |
| 2026-05-04 09:46 | 51.10183 | -0.85549 | 32341 ft | 428 kts | 168° |
| 2026-05-04 09:46 | 51.07313 | -0.84393 | 32644 ft | 429 kts | 168° |
| 2026-05-04 09:46 | 51.04405 | -0.83225 | 32976 ft | 429 kts | 168° |
| 2026-05-04 09:47 | 51.01522 | -0.82068 | 33290 ft | 429 kts | 168° |
| 2026-05-04 09:47 | 50.98630 | -0.80908 | 33598 ft | 430 kts | 168° |
| 2026-05-04 09:49 | 50.79134 | -0.69115 | 35438 ft | 437 kts | 150° |
| 2026-05-04 09:49 | 50.76592 | -0.66558 | 35681 ft | 437 kts | 149° |
| 2026-05-04 09:49 | 50.74037 | -0.63972 | 35915 ft | 437 kts | 149° |
| 2026-05-04 09:51 | 50.58623 | -0.48386 | 37027 ft | 440 kts | 149° |
| 2026-05-04 09:51 | 50.53467 | -0.43198 | 37012 ft | 438 kts | 149° |
| 2026-05-04 09:52 | 50.48337 | -0.38050 | 37015 ft | 438 kts | 150° |
| 2026-05-04 09:52 | 50.43200 | -0.32908 | 37015 ft | 438 kts | 150° |
| 2026-05-04 09:53 | 50.38058 | -0.27775 | 37015 ft | 438 kts | 150° |
| 2026-05-04 09:53 | 50.32927 | -0.22667 | 37008 ft | 437 kts | 150° |
| 2026-05-04 09:54 | 50.27796 | -0.17571 | 37009 ft | 437 kts | 150° |
| 2026-05-04 09:54 | 50.22658 | -0.12482 | 37009 ft | 437 kts | 150° |
| 2026-05-04 09:55 | 50.17518 | -0.07403 | 37016 ft | 437 kts | 150° |
| 2026-05-04 09:55 | 50.13232 | -0.03177 | 37015 ft | 437 kts | 150° |
| 2026-05-04 09:56 | 50.07766 | 0.00729 | 37028 ft | 428 kts | 168° |
| 2026-05-04 09:56 | 50.01982 | 0.03125 | 37016 ft | 431 kts | 167° |
| 2026-05-04 09:57 | 49.96167 | 0.05451 | 37011 ft | 431 kts | 168° |
| 2026-05-04 09:57 | 49.90342 | 0.07742 | 37005 ft | 430 kts | 168° |
| 2026-05-04 09:58 | 49.84531 | 0.10018 | 37005 ft | 430 kts | 168° |
| 2026-05-04 09:58 | 49.78726 | 0.12287 | 37008 ft | 429 kts | 168° |
| 2026-05-04 10:00 | 49.55627 | 0.21469 | 37020 ft | 429 kts | 167° |
| 2026-05-04 10:04 | 49.15276 | 0.37956 | 36989 ft | 428 kts | 167° |
| 2026-05-04 10:04 | 49.09529 | 0.40363 | 36984 ft | 428 kts | 167° |
| 2026-05-04 10:05 | 49.03788 | 0.42761 | 36977 ft | 428 kts | 167° |
| 2026-05-04 10:05 | 48.98044 | 0.45155 | 36979 ft | 428 kts | 167° |
| 2026-05-04 10:06 | 48.92275 | 0.47554 | 36977 ft | 428 kts | 167° |
| 2026-05-04 10:06 | 48.86548 | 0.49929 | 36975 ft | 427 kts | 167° |
| 2026-05-04 10:08 | 48.66443 | 0.57964 | 36972 ft | 426 kts | 168° |
| 2026-05-04 10:08 | 48.60700 | 0.60215 | 36968 ft | 425 kts | 168° |
| 2026-05-04 10:09 | 48.54981 | 0.62452 | 36964 ft | 425 kts | 168° |
| 2026-05-04 10:09 | 48.49259 | 0.64756 | 36964 ft | 425 kts | 167° |
| 2026-05-04 10:10 | 48.43569 | 0.67068 | 36964 ft | 424 kts | 168° |
| 2026-05-04 10:10 | 48.37897 | 0.69364 | 36966 ft | 424 kts | 168° |
| 2026-05-04 10:11 | 48.32204 | 0.71664 | 36961 ft | 423 kts | 168° |
| 2026-05-04 10:11 | 48.26482 | 0.73969 | 36958 ft | 423 kts | 168° |
| 2026-05-04 10:12 | 48.20782 | 0.76218 | 36960 ft | 423 kts | 168° |
| 2026-05-04 10:12 | 48.15098 | 0.78456 | 36954 ft | 423 kts | 168° |
| 2026-05-04 10:13 | 48.09429 | 0.80684 | 36957 ft | 423 kts | 168° |
| 2026-05-04 10:13 | 48.03723 | 0.82921 | 36958 ft | 422 kts | 168° |
| 2026-05-04 10:14 | 47.98039 | 0.85144 | 36959 ft | 422 kts | 168° |
| 2026-05-04 10:16 | 47.75335 | 0.93972 | 36950 ft | 421 kts | 168° |
| 2026-05-04 10:16 | 47.69651 | 0.96169 | 36968 ft | 421 kts | 168° |
| 2026-05-04 10:17 | 47.63989 | 0.98352 | 36956 ft | 420 kts | 168° |
| 2026-05-04 10:19 | 47.41308 | 1.06314 | 36965 ft | 411 kts | 184° |
| 2026-05-04 10:19 | 47.35547 | 1.06234 | 36964 ft | 414 kts | 183° |
| 2026-05-04 10:20 | 47.29784 | 1.06131 | 36958 ft | 413 kts | 183° |
| 2026-05-04 10:20 | 47.24051 | 1.06001 | 36951 ft | 413 kts | 183° |
| 2026-05-04 10:21 | 47.18283 | 1.05866 | 36949 ft | 413 kts | 183° |
| 2026-05-04 10:21 | 47.12537 | 1.05732 | 36951 ft | 413 kts | 183° |
| 2026-05-04 10:22 | 47.03925 | 1.05531 | 36947 ft | 413 kts | 184° |
| 2026-05-04 10:23 | 46.98180 | 1.05287 | 36953 ft | 412 kts | 184° |
| 2026-05-04 10:25 | 46.75241 | 1.04320 | 36948 ft | 411 kts | 184° |
| 2026-05-04 10:25 | 46.69548 | 1.04081 | 36949 ft | 411 kts | 184° |
| 2026-05-04 10:26 | 46.63816 | 1.03842 | 36954 ft | 410 kts | 184° |
| 2026-05-04 10:26 | 46.58115 | 1.03604 | 36953 ft | 410 kts | 184° |
| 2026-05-04 10:27 | 46.52418 | 1.03373 | 36950 ft | 410 kts | 184° |
| 2026-05-04 10:27 | 46.46686 | 1.03317 | 36949 ft | 410 kts | 183° |
| 2026-05-04 10:28 | 46.40988 | 1.03253 | 36948 ft | 410 kts | 184° |
| 2026-05-04 10:28 | 46.35283 | 1.03185 | 36952 ft | 410 kts | 184° |
| 2026-05-04 10:29 | 46.30509 | 1.03129 | 36952 ft | 410 kts | 184° |
| 2026-05-04 10:29 | 46.24800 | 1.03062 | 36955 ft | 410 kts | 184° |
| 2026-05-04 10:30 | 46.19098 | 1.02995 | 36949 ft | 410 kts | 184° |
| 2026-05-04 10:30 | 46.13414 | 1.02928 | 36953 ft | 410 kts | 184° |
| 2026-05-04 10:31 | 46.07693 | 1.02861 | 36953 ft | 409 kts | 184° |
| 2026-05-04 10:32 | 45.87755 | 1.02628 | 36961 ft | 409 kts | 184° |
| 2026-05-04 10:33 | 45.82039 | 1.02587 | 36959 ft | 410 kts | 180° |
| 2026-05-04 10:33 | 45.76366 | 1.03923 | 36945 ft | 414 kts | 174° |
| 2026-05-04 10:34 | 45.70676 | 1.05373 | 36962 ft | 415 kts | 174° |
| 2026-05-04 10:34 | 45.64985 | 1.06833 | 36954 ft | 414 kts | 174° |
| 2026-05-04 10:35 | 45.59313 | 1.08288 | 36955 ft | 414 kts | 174° |
| 2026-05-04 10:35 | 45.53642 | 1.09739 | 36948 ft | 414 kts | 174° |
| 2026-05-04 10:36 | 45.47975 | 1.11186 | 36962 ft | 415 kts | 174° |
| 2026-05-04 10:36 | 45.42288 | 1.12635 | 36946 ft | 414 kts | 174° |
| 2026-05-04 10:37 | 45.36601 | 1.14082 | 36960 ft | 415 kts | 174° |
| 2026-05-04 10:37 | 45.30901 | 1.15528 | 36959 ft | 415 kts | 174° |
| 2026-05-04 10:39 | 45.13904 | 1.18603 | 36971 ft | 403 kts | 193° |
| 2026-05-04 10:39 | 45.11101 | 1.17964 | 36950 ft | 405 kts | 192° |
| 2026-05-04 10:40 | 45.05543 | 1.16627 | 36958 ft | 405 kts | 193° |
| 2026-05-04 10:40 | 44.99995 | 1.15224 | 36956 ft | 405 kts | 193° |
| 2026-05-04 10:41 | 44.94469 | 1.13811 | 36953 ft | 405 kts | 193° |
| 2026-05-04 10:41 | 44.88908 | 1.12391 | 36961 ft | 405 kts | 193° |
| 2026-05-04 10:42 | 44.83352 | 1.10974 | 36948 ft | 405 kts | 193° |
| 2026-05-04 10:42 | 44.77812 | 1.09565 | 36954 ft | 405 kts | 193° |
| 2026-05-04 10:43 | 44.72294 | 1.08164 | 36949 ft | 404 kts | 193° |
| 2026-05-04 10:45 | 44.50077 | 1.02549 | 36952 ft | 405 kts | 193° |
| 2026-05-04 10:45 | 44.44540 | 1.01156 | 36950 ft | 405 kts | 193° |
| 2026-05-04 10:46 | 44.38971 | 0.99759 | 36953 ft | 405 kts | 194° |
| 2026-05-04 10:46 | 44.33442 | 0.98373 | 36956 ft | 405 kts | 193° |
| 2026-05-04 10:47 | 44.27893 | 0.96986 | 36959 ft | 405 kts | 194° |
| 2026-05-04 10:47 | 44.22312 | 0.95593 | 36960 ft | 405 kts | 194° |
| 2026-05-04 10:49 | 44.00104 | 0.90077 | 36957 ft | 405 kts | 194° |
| 2026-05-04 10:50 | 43.94562 | 0.88706 | 36958 ft | 405 kts | 194° |
| 2026-05-04 10:52 | 43.72414 | 0.82871 | 36953 ft | 405 kts | 195° |
| 2026-05-04 10:52 | 43.66880 | 0.81397 | 36951 ft | 404 kts | 195° |
| 2026-05-04 10:54 | 43.44758 | 0.75531 | 36949 ft | 405 kts | 195° |
| 2026-05-04 10:56 | 43.22585 | 0.69695 | 36948 ft | 406 kts | 195° |
| 2026-05-04 10:57 | 43.17051 | 0.68245 | 36951 ft | 405 kts | 195° |
| 2026-05-04 10:57 | 43.11511 | 0.66796 | 36953 ft | 405 kts | 195° |
| 2026-05-04 10:58 | 43.05964 | 0.65348 | 36950 ft | 405 kts | 195° |
| 2026-05-04 10:58 | 43.00453 | 0.63912 | 36935 ft | 404 kts | 195° |
| 2026-05-04 10:59 | 42.94919 | 0.62473 | 36944 ft | 404 kts | 195° |
| 2026-05-04 10:59 | 42.89419 | 0.61046 | 36973 ft | 402 kts | 195° |
| 2026-05-04 11:00 | 42.83895 | 0.59614 | 36947 ft | 402 kts | 195° |
| 2026-05-04 11:01 | 42.65961 | 0.53628 | 36941 ft | 397 kts | 207° |
| 2026-05-04 11:02 | 42.63469 | 0.52072 | 36939 ft | 394 kts | 207° |
| 2026-05-04 11:05 | 42.26282 | 0.28420 | 36985 ft | 393 kts | 208° |
| 2026-05-04 11:06 | 42.21320 | 0.25284 | 36975 ft | 392 kts | 208° |
| 2026-05-04 11:06 | 42.16370 | 0.22161 | 36981 ft | 393 kts | 207° |
| 2026-05-04 11:08 | 41.97904 | 0.16493 | 36971 ft | 407 kts | 182° |
| 2026-05-04 11:10 | 41.78089 | 0.18153 | 36969 ft | 407 kts | 181° |
| 2026-05-04 11:12 | 41.55499 | 0.20093 | 36967 ft | 406 kts | 182° |
| 2026-05-04 11:12 | 41.49861 | 0.20575 | 36969 ft | 405 kts | 182° |
| 2026-05-04 11:13 | 41.44226 | 0.21056 | 36962 ft | 405 kts | 182° |
| 2026-05-04 11:13 | 41.38704 | 0.21528 | 36936 ft | 384 kts | 182° |
| 2026-05-04 11:14 | 41.36075 | 0.21748 | 36461 ft | 379 kts | 183° |
| 2026-05-04 11:14 | 41.33461 | 0.21512 | 35812 ft | 371 kts | 195° |
| 2026-05-04 11:14 | 41.30935 | 0.20887 | 35308 ft | 370 kts | 194° |
| 2026-05-04 11:16 | 41.13678 | 0.16699 | 32056 ft | 349 kts | 196° |
| 2026-05-04 11:16 | 41.11354 | 0.15805 | 31566 ft | 344 kts | 202° |
| 2026-05-04 11:16 | 41.09093 | 0.14856 | 31152 ft | 342 kts | 201° |
| 2026-05-04 11:17 | 41.06837 | 0.13937 | 30769 ft | 338 kts | 201° |
| 2026-05-04 11:17 | 41.04568 | 0.13026 | 30375 ft | 336 kts | 201° |
| 2026-05-04 11:19 | 40.89325 | 0.06989 | 27806 ft | 323 kts | 201° |
| 2026-05-04 11:19 | 40.87187 | 0.06141 | 27371 ft | 321 kts | 201° |
| 2026-05-04 11:19 | 40.85047 | 0.05282 | 26946 ft | 319 kts | 201° |
| 2026-05-04 11:19 | 40.82949 | 0.04440 | 26615 ft | 315 kts | 201° |
| 2026-05-04 11:20 | 40.80834 | 0.03593 | 26284 ft | 312 kts | 201° |
| 2026-05-04 11:20 | 40.78782 | 0.02772 | 25958 ft | 308 kts | 201° |
| 2026-05-04 11:20 | 40.76750 | 0.01959 | 25632 ft | 305 kts | 201° |
| 2026-05-04 11:20 | 40.74714 | 0.01145 | 25304 ft | 301 kts | 201° |
| 2026-05-04 11:22 | 40.60595 | -0.04486 | 23026 ft | 306 kts | 201° |
| 2026-05-04 11:22 | 40.58558 | -0.05296 | 22688 ft | 305 kts | 201° |
| 2026-05-04 11:23 | 40.56523 | -0.06105 | 22372 ft | 304 kts | 201° |
| 2026-05-04 11:23 | 40.54492 | -0.06912 | 22014 ft | 303 kts | 201° |
| 2026-05-04 11:24 | 40.42836 | -0.11533 | 20260 ft | 285 kts | 201° |
| 2026-05-04 11:25 | 40.40913 | -0.12295 | 19954 ft | 290 kts | 201° |
| 2026-05-04 11:25 | 40.38938 | -0.13075 | 19650 ft | 293 kts | 201° |
| 2026-05-04 11:25 | 40.36999 | -0.13842 | 19354 ft | 293 kts | 201° |
| 2026-05-04 11:26 | 40.33096 | -0.15383 | 18756 ft | 292 kts | 201° |
| 2026-05-04 11:27 | 40.20001 | -0.20632 | 16632 ft | 278 kts | 201° |
| 2026-05-04 11:28 | 40.18122 | -0.21398 | 16338 ft | 283 kts | 201° |
| 2026-05-04 11:28 | 40.16240 | -0.22164 | 16050 ft | 283 kts | 201° |
| 2026-05-04 11:28 | 40.14375 | -0.22923 | 15762 ft | 281 kts | 201° |
| 2026-05-04 11:28 | 40.12502 | -0.23685 | 15470 ft | 278 kts | 201° |
| 2026-05-04 11:29 | 40.10684 | -0.24424 | 15182 ft | 274 kts | 201° |
| 2026-05-04 11:29 | 40.08852 | -0.25168 | 14890 ft | 271 kts | 201° |
| 2026-05-04 11:29 | 40.07064 | -0.25894 | 14623 ft | 268 kts | 201° |
| 2026-05-04 11:29 | 40.05276 | -0.26619 | 14338 ft | 266 kts | 201° |
| 2026-05-04 11:31 | 39.92958 | -0.31364 | 12425 ft | 273 kts | 199° |
| 2026-05-04 11:33 | 39.80959 | -0.37581 | 10387 ft | 261 kts | 230° |
| 2026-05-04 11:33 | 39.80215 | -0.38844 | 10199 ft | 260 kts | 236° |
| 2026-05-04 11:33 | 39.79133 | -0.41568 | 9939 ft | 254 kts | 248° |
| 2026-05-04 11:34 | 39.78789 | -0.43048 | 9743 ft | 254 kts | 255° |
| 2026-05-04 11:34 | 39.78566 | -0.45335 | 9443 ft | 254 kts | 266° |
| 2026-05-04 11:34 | 39.78646 | -0.47603 | 9164 ft | 252 kts | 269° |
| 2026-05-04 11:34 | 39.78655 | -0.49886 | 8878 ft | 248 kts | 265° |
| 2026-05-04 11:35 | 39.78547 | -0.52101 | 8630 ft | 246 kts | 262° |
| 2026-05-04 11:35 | 39.78331 | -0.54321 | 8372 ft | 251 kts | 258° |
| 2026-05-04 11:35 | 39.77999 | -0.56582 | 8086 ft | 254 kts | 256° |
| 2026-05-04 11:35 | 39.77568 | -0.58799 | 7814 ft | 254 kts | 252° |
| 2026-05-04 11:36 | 39.77040 | -0.60978 | 7563 ft | 254 kts | 250° |
| 2026-05-04 11:36 | 39.76409 | -0.63133 | 7279 ft | 252 kts | 246° |
| 2026-05-04 11:36 | 39.75698 | -0.65198 | 7007 ft | 249 kts | 243° |
| 2026-05-04 11:36 | 39.74916 | -0.67151 | 6746 ft | 246 kts | 240° |
| 2026-05-04 11:37 | 39.74044 | -0.69057 | 6484 ft | 244 kts | 237° |
| 2026-05-04 11:37 | 39.73101 | -0.70877 | 6218 ft | 242 kts | 234° |
| 2026-05-04 11:37 | 39.72088 | -0.72607 | 5948 ft | 240 kts | 231° |
| 2026-05-04 11:37 | 39.71011 | -0.74251 | 5689 ft | 237 kts | 229° |
| 2026-05-04 11:38 | 39.69885 | -0.75789 | 5456 ft | 232 kts | 226° |
| 2026-05-04 11:38 | 39.68728 | -0.77204 | 5236 ft | 225 kts | 223° |
| 2026-05-04 11:38 | 39.67535 | -0.78505 | 5110 ft | 224 kts | 217° |
| 2026-05-04 11:38 | 39.66188 | -0.79546 | 5012 ft | 227 kts | 210° |
| 2026-05-04 11:39 | 39.64655 | -0.79985 | 4873 ft | 232 kts | 178° |
| 2026-05-04 11:39 | 39.63156 | -0.79196 | 4738 ft | 240 kts | 144° |
| 2026-05-04 11:40 | 39.56899 | -0.69201 | 3460 ft | 239 kts | 117° |
| 2026-05-04 11:41 | 39.56190 | -0.67283 | 3149 ft | 234 kts | 117° |
| 2026-05-04 11:41 | 39.55486 | -0.65426 | 2843 ft | 220 kts | 117° |
| 2026-05-04 11:41 | 39.54843 | -0.63728 | 2567 ft | 197 kts | 117° |
| 2026-05-04 11:41 | 39.54256 | -0.62182 | 2318 ft | 184 kts | 117° |
| 2026-05-04 11:42 | 39.53728 | -0.60789 | 2105 ft | 162 kts | 117° |
| 2026-05-04 11:42 | 39.53243 | -0.59513 | 1884 ft | 156 kts | 117° |
| 2026-05-04 11:42 | 39.52769 | -0.58259 | 1680 ft | 154 kts | 116° |
| 2026-05-04 11:42 | 39.52296 | -0.56989 | 1462 ft | 157 kts | 116° |
| 2026-05-04 11:43 | 39.51832 | -0.55736 | 1252 ft | 152 kts | 115° |
| 2026-05-04 11:43 | 39.51371 | -0.54508 | 1028 ft | 151 kts | 116° |
| 2026-05-04 11:43 | 39.50891 | -0.53295 | 829 ft | 152 kts | 117° |
| 2026-05-04 11:43 | 39.50434 | -0.52078 | 643 ft | 148 kts | 116° |
| 2026-05-04 11:44 | 39.49973 | -0.50880 | 430 ft | 150 kts | 117° |
| 2026-05-04 11:44 | 39.49515 | -0.49684 | 251 ft | 143 kts | 117° |
| 2026-05-04 11:44 | 39.49140 | -0.48701 | 224 ft | 89 kts | 117° |
| 2026-05-04 11:44 | 39.48976 | -0.48229 | 218 ft | 26 kts | 96° |
| 2026-05-04 11:45 | 39.48984 | -0.48095 | 211 ft | 15 kts | 80° |
| 2026-05-04 11:45 | 39.49008 | -0.47954 | 213 ft | 18 kts | 76° |
| 2026-05-04 11:45 | 39.49038 | -0.47782 | 216 ft | 21 kts | 77° |
| 2026-05-04 11:45 | 39.49048 | -0.47604 | 210 ft | 20 kts | 116° |
| 2026-05-04 11:46 | 39.48991 | -0.47457 | 202 ft | 13 kts | 116° |
| 2026-05-04 11:46 | 39.48968 | -0.47378 | 203 ft | 7 kts | 78° |
| 2026-05-04 11:46 | 39.49003 | -0.47347 | 199 ft | 8 kts | 22° |
| 2026-05-04 11:46 | 39.49037 | -0.47335 | 200 ft | 2 kts | 12° |
| 2026-05-04 11:47 | 39.49043 | -0.47333 | 209 ft | 0 kts | 12° |